createdAt,value
2022-11-08T00:01:34.878Z,87.01
2022-11-08T00:04:10.081Z,86.88
2022-11-08T00:07:00.149Z,87.03
2022-11-08T00:09:50.400Z,87.33
2022-11-08T00:12:40.546Z,87.24
2022-11-08T00:15:13.428Z,86.93
2022-11-08T00:17:45.547Z,86.98
2022-11-08T00:20:18.274Z,87.05
2022-11-08T00:22:50.536Z,87.32
2022-11-08T00:25:22.868Z,87.40
2022-11-08T00:27:55.038Z,87.33
2022-11-08T00:30:25.393Z,87.30
2022-11-08T00:32:57.445Z,86.92
2022-11-08T00:35:29.477Z,86.93
2022-11-08T00:38:01.636Z,87.38
2022-11-08T00:40:33.791Z,87.61
2022-11-08T00:43:04.240Z,87.80
2022-11-08T00:45:36.217Z,87.95
2022-11-08T00:48:09.482Z,87.94
2022-11-08T00:50:42.197Z,87.94
2022-11-08T00:53:14.102Z,87.97
2022-11-08T00:55:46.373Z,88.03
2022-11-08T00:58:17.288Z,88.16
2022-11-08T01:00:49.545Z,88.17
2022-11-08T01:03:20.023Z,87.91
2022-11-08T01:05:53.690Z,87.72
2022-11-08T01:08:26.343Z,87.68
2022-11-08T01:10:58.539Z,87.75
2022-11-08T01:13:30.749Z,87.85
2022-11-08T01:16:09.082Z,87.78
2022-11-08T01:18:41.683Z,87.80
2022-11-08T01:21:15.196Z,87.96
2022-11-08T01:23:48.123Z,88.08
2022-11-08T01:26:22.258Z,88.16
2022-11-08T01:28:54.871Z,88.38
2022-11-08T01:31:29.396Z,88.63
2022-11-08T01:34:02.023Z,88.66
2022-11-08T01:36:34.017Z,88.61
2022-11-08T01:39:06.347Z,88.55
2022-11-08T01:41:39.731Z,88.17
2022-11-08T01:44:17.877Z,88.20
2022-11-08T01:46:50.134Z,88.41
2022-11-08T01:49:36.980Z,88.50
2022-11-08T01:52:17.969Z,88.46
2022-11-08T01:54:56.871Z,88.37
2022-11-08T01:57:32.671Z,88.37
2022-11-08T02:00:07.435Z,88.22
2022-11-08T02:02:44.691Z,88.17
2022-11-08T02:05:26.581Z,87.84
2022-11-08T02:08:03.374Z,87.70
2022-11-08T02:10:37.658Z,87.50
2022-11-08T02:13:14.926Z,87.50
2022-11-08T02:15:47.771Z,87.94
2022-11-08T02:18:22.577Z,87.72
2022-11-08T02:21:06.085Z,87.65
2022-11-08T02:23:47.491Z,88.00
2022-11-08T02:26:23.210Z,87.85
2022-11-08T02:28:55.281Z,87.72
2022-11-08T02:31:27.435Z,87.77
2022-11-08T02:33:57.785Z,87.74
2022-11-08T02:36:29.747Z,87.68
2022-11-08T02:39:01.708Z,87.46
2022-11-08T02:41:33.707Z,87.61
2022-11-08T02:44:05.932Z,87.61
2022-11-08T02:46:37.896Z,87.93
2022-11-08T02:49:10.323Z,87.84
2022-11-08T02:51:42.567Z,87.74
2022-11-08T02:54:14.595Z,87.77
2022-11-08T02:56:46.765Z,87.98
2022-11-08T02:59:17.241Z,87.75
2022-11-08T03:01:49.414Z,87.88
2022-11-08T03:04:21.580Z,88.44
2022-11-08T03:06:52.265Z,88.85
2022-11-08T03:09:24.283Z,89.02
2022-11-08T03:11:56.458Z,88.86
2022-11-08T03:14:26.857Z,88.73
2022-11-08T03:16:58.842Z,88.89
2022-11-08T03:19:31.091Z,88.60
2022-11-08T03:22:01.746Z,88.28
2022-11-08T03:24:33.950Z,88.50
2022-11-08T03:27:04.505Z,88.69
2022-11-08T03:29:36.764Z,88.95
2022-11-08T03:32:09.045Z,89.07
2022-11-08T03:34:41.090Z,88.88
2022-11-08T03:37:13.118Z,88.81
2022-11-08T03:39:43.559Z,89.07
2022-11-08T03:42:15.488Z,89.22
2022-11-08T03:44:47.441Z,89.25
2022-11-08T03:47:19.380Z,89.01
2022-11-08T03:49:50.020Z,88.94
2022-11-08T03:52:22.280Z,89.09
2022-11-08T03:54:54.398Z,89.07
2022-11-08T03:57:26.507Z,89.12
2022-11-08T03:59:58.442Z,89.14
2022-11-08T04:02:30.505Z,88.96
2022-11-08T04:05:00.961Z,88.83
2022-11-08T04:07:33.126Z,88.74
2022-11-08T04:10:03.610Z,88.84
2022-11-08T04:12:53.224Z,88.75
2022-11-08T04:15:25.680Z,88.47
2022-11-08T04:18:16.624Z,88.40
2022-11-08T04:21:07.935Z,88.76
2022-11-08T04:23:40.688Z,88.77
2022-11-08T04:26:13.507Z,88.75
2022-11-08T04:28:45.772Z,88.86
2022-11-08T04:31:19.571Z,89.13
2022-11-08T04:33:51.536Z,89.38
2022-11-08T04:36:23.530Z,89.75
2022-11-08T04:38:55.706Z,89.61
2022-11-08T04:41:28.957Z,89.64
2022-11-08T04:44:01.054Z,89.91
2022-11-08T04:46:33.165Z,90.24
2022-11-08T04:49:03.571Z,90.31
2022-11-08T04:51:36.558Z,90.45
2022-11-08T04:54:11.827Z,90.51
2022-11-08T04:56:43.855Z,90.75
2022-11-08T04:59:15.835Z,91.00
2022-11-08T05:01:48.019Z,91.07
2022-11-08T05:04:18.881Z,91.19
2022-11-08T05:06:51.060Z,90.98
2022-11-08T05:09:23.457Z,90.94
2022-11-08T05:11:55.599Z,91.05
2022-11-08T05:14:27.568Z,91.07
2022-11-08T05:16:59.856Z,90.89
2022-11-08T05:19:49.159Z,90.83
2022-11-08T05:22:38.876Z,91.01
2022-11-08T05:25:11.561Z,91.06
2022-11-08T05:27:43.658Z,91.29
2022-11-08T05:30:14.459Z,91.28
2022-11-08T05:32:46.427Z,91.13
2022-11-08T05:35:21.638Z,91.19
2022-11-08T05:37:53.709Z,91.15
2022-11-08T05:40:29.405Z,91.03
2022-11-08T05:43:05.257Z,90.90
2022-11-08T05:45:37.584Z,91.19
2022-11-08T05:48:08.577Z,91.33
2022-11-08T05:50:40.579Z,91.28
2022-11-08T05:53:16.502Z,91.35
2022-11-08T05:55:48.960Z,91.47
2022-11-08T05:58:19.302Z,91.48
2022-11-08T06:00:51.319Z,91.49
2022-11-08T06:03:24.172Z,91.58
2022-11-08T06:05:56.608Z,91.88
2022-11-08T06:08:28.719Z,92.11
2022-11-08T06:11:06.356Z,92.28
2022-11-08T06:13:39.362Z,92.49
2022-11-08T06:16:16.168Z,92.79
2022-11-08T06:18:48.457Z,92.81
2022-11-08T06:21:22.290Z,92.41
2022-11-08T06:23:56.386Z,92.33
2022-11-08T06:26:28.862Z,92.27
2022-11-08T06:29:01.834Z,92.08
2022-11-08T06:31:34.185Z,91.25
2022-11-08T06:34:06.686Z,90.81
2022-11-08T06:36:38.985Z,89.95
2022-11-08T06:39:11.277Z,88.68
2022-11-08T06:41:43.233Z,87.93
2022-11-08T06:44:15.483Z,87.71
2022-11-08T06:46:47.564Z,86.80
2022-11-08T06:49:18.050Z,86.46
2022-11-08T06:51:50.039Z,86.20
2022-11-08T06:54:24.422Z,85.23
2022-11-08T06:57:00.444Z,84.42
2022-11-08T06:59:32.802Z,83.87
2022-11-08T07:02:03.308Z,83.86
2022-11-08T07:04:35.482Z,83.39
2022-11-08T07:07:05.963Z,82.43
2022-11-08T07:09:38.008Z,81.41
2022-11-08T07:12:10.002Z,80.63
2022-11-08T07:14:42.379Z,79.00
2022-11-08T07:17:16.132Z,78.89
2022-11-08T07:19:48.396Z,78.06
2022-11-08T07:22:20.521Z,77.64
2022-11-08T07:24:52.739Z,77.59
2022-11-08T07:27:23.285Z,77.27
2022-11-08T07:29:55.325Z,76.97
2022-11-08T07:32:25.759Z,76.30
2022-11-08T07:34:57.785Z,75.61
2022-11-08T07:37:28.248Z,75.22
2022-11-08T07:40:00.356Z,75.25
2022-11-08T07:42:56.873Z,74.63
2022-11-08T07:45:24.616Z,74.44
2022-11-08T07:47:59.337Z,73.37
2022-11-08T07:50:32.342Z,71.55
2022-11-08T07:53:04.299Z,71.32
2022-11-08T07:55:36.667Z,71.22
2022-11-08T07:58:11.000Z,70.06
2022-11-08T08:00:44.244Z,69.57
2022-11-08T08:03:17.353Z,70.12
2022-11-08T08:06:00.533Z,69.53
2022-11-08T08:08:32.984Z,70.15
2022-11-08T08:11:05.374Z,69.17
2022-11-08T08:13:37.939Z,68.84
2022-11-08T08:16:10.517Z,69.57
2022-11-08T08:18:42.597Z,69.28
2022-11-08T08:21:13.125Z,68.30
2022-11-08T08:23:45.197Z,67.33
2022-11-08T08:26:17.302Z,68.19
2022-11-08T08:28:49.335Z,68.19
2022-11-08T08:31:19.726Z,67.45
2022-11-08T08:33:51.792Z,66.44
2022-11-08T08:36:23.975Z,66.24
2022-11-08T08:38:56.075Z,66.11
2022-11-08T08:41:28.102Z,65.42
2022-11-08T08:44:00.204Z,64.77
2022-11-08T08:46:32.237Z,64.65
2022-11-08T08:49:02.595Z,64.39
2022-11-08T08:51:34.756Z,64.55
2022-11-08T08:54:07.184Z,64.29
2022-11-08T08:56:39.378Z,63.72
2022-11-08T09:02:03.469Z,62.62
2022-11-08T09:04:36.725Z,63.11
2022-11-08T09:07:09.148Z,62.37
2022-11-08T09:09:41.248Z,62.92
2022-11-08T09:12:14.588Z,61.94
2022-11-08T09:14:47.058Z,60.98
2022-11-08T09:17:19.541Z,61.35
2022-11-08T09:19:56.807Z,61.39
2022-11-08T09:22:29.264Z,61.52
2022-11-08T09:25:01.257Z,61.77
2022-11-08T09:27:34.040Z,60.88
2022-11-08T09:30:07.665Z,60.46
2022-11-08T09:32:59.730Z,61.18
2022-11-08T09:35:32.351Z,61.27
2022-11-08T09:38:04.393Z,61.58
2022-11-08T09:40:50.599Z,60.84
2022-11-08T09:43:38.249Z,60.21
2022-11-08T09:46:12.664Z,60.89
2022-11-08T09:48:46.324Z,59.58
2022-11-08T09:51:21.730Z,60.86
2022-11-08T09:53:56.282Z,61.13
2022-11-08T09:56:31.742Z,60.69
2022-11-08T09:59:11.331Z,61.11
2022-11-08T10:01:43.380Z,61.68
2022-11-08T10:04:19.594Z,61.48
2022-11-08T10:07:05.249Z,61.08
2022-11-08T10:09:54.487Z,60.71
2022-11-08T10:12:33.773Z,60.25
2022-11-08T10:15:22.441Z,60.87
2022-11-08T10:18:14.421Z,60.27
2022-11-08T10:20:50.959Z,60.63
2022-11-08T10:23:28.851Z,61.21
2022-11-08T10:26:06.755Z,61.92
2022-11-08T10:28:42.906Z,62.50
2022-11-08T10:31:15.938Z,62.81
2022-11-08T10:33:52.135Z,63.29
2022-11-08T10:36:28.577Z,63.94
2022-11-08T10:39:05.559Z,64.09
2022-11-08T10:41:44.460Z,64.73
2022-11-08T10:44:20.977Z,65.00
2022-11-08T10:46:59.711Z,65.54
2022-11-08T10:49:34.378Z,65.94
2022-11-08T10:52:20.742Z,66.12
2022-11-08T10:54:54.868Z,66.25
2022-11-08T10:57:38.040Z,66.47
2022-11-08T11:00:27.527Z,66.92
2022-11-08T11:03:01.046Z,67.15
2022-11-08T11:05:36.240Z,67.45
2022-11-08T11:08:19.178Z,67.34
2022-11-08T11:10:52.261Z,67.42
2022-11-08T11:16:04.271Z,67.50
2022-11-08T11:18:39.103Z,67.46
2022-11-08T11:21:13.804Z,67.37
2022-11-08T11:23:49.451Z,67.64
2022-11-08T11:26:30.913Z,67.24
2022-11-08T11:29:17.239Z,66.95
2022-11-08T11:31:51.032Z,67.12
2022-11-08T11:34:40.780Z,67.19
2022-11-08T11:37:21.865Z,67.33
2022-11-08T11:40:07.506Z,67.44
2022-11-08T11:42:47.277Z,67.67
2022-11-08T11:45:31.123Z,68.09
2022-11-08T11:48:06.212Z,67.90
2022-11-08T11:50:40.700Z,68.14
2022-11-08T11:53:20.858Z,68.15
2022-11-08T11:56:35.368Z,68.09
2022-11-08T11:59:42.942Z,67.94
2022-11-08T12:02:36.178Z,68.04
2022-11-08T12:05:22.510Z,67.72
2022-11-08T12:08:08.880Z,67.24
2022-11-08T12:10:54.699Z,67.34
2022-11-08T12:13:36.381Z,67.05
2022-11-08T12:16:14.976Z,67.20
2022-11-08T12:18:58.078Z,67.17
2022-11-08T12:21:42.835Z,66.95
2022-11-08T12:24:34.004Z,66.92
2022-11-08T12:27:15.690Z,65.41
2022-11-08T12:29:54.781Z,65.58
2022-11-08T12:32:43.080Z,63.31
2022-11-08T12:35:27.603Z,63.34
2022-11-08T12:38:12.209Z,63.33
2022-11-08T12:40:50.343Z,62.62
2022-11-08T12:43:41.136Z,61.66
2022-11-08T12:46:18.587Z,61.77
2022-11-08T12:49:14.042Z,61.89
2022-11-08T12:52:00.461Z,61.12
2022-11-08T12:54:38.773Z,61.18
2022-11-08T12:57:16.456Z,61.64
2022-11-08T12:59:52.359Z,61.55
2022-11-08T13:02:28.579Z,61.59
2022-11-08T13:05:08.793Z,61.92
2022-11-08T13:07:48.237Z,61.39
2022-11-08T13:10:32.269Z,61.27
2022-11-08T13:13:17.407Z,61.76
2022-11-08T13:16:12.908Z,61.70
2022-11-08T13:18:49.423Z,60.94
2022-11-08T13:21:39.842Z,61.07
2022-11-08T13:24:45.441Z,61.25
2022-11-08T13:27:26.565Z,61.47
2022-11-08T13:30:02.359Z,61.39
2022-11-08T13:32:53.639Z,61.69
2022-11-08T13:35:34.198Z,61.80
2022-11-08T13:38:20.705Z,62.22
2022-11-08T13:41:13.806Z,62.68
2022-11-08T13:43:46.693Z,62.21
2022-11-08T13:46:49.531Z,62.01
2022-11-08T13:49:24.319Z,61.97
2022-11-08T13:52:27.309Z,62.36
2022-11-08T13:54:59.465Z,62.46
2022-11-08T13:57:59.445Z,62.17
2022-11-08T14:00:46.852Z,61.63
2022-11-08T14:03:53.609Z,62.15
2022-11-08T14:06:35.694Z,62.14
2022-11-08T14:09:23.085Z,62.69
2022-11-08T14:12:02.025Z,62.86
2022-11-08T14:14:48.475Z,63.12
2022-11-08T14:17:43.388Z,63.19
2022-11-08T14:20:28.401Z,63.11
2022-11-08T14:23:03.288Z,62.90
2022-11-08T14:25:39.045Z,62.42
2022-11-08T14:28:26.840Z,62.49
2022-11-08T14:31:00.878Z,62.48
2022-11-08T14:33:34.225Z,62.78
2022-11-08T14:36:08.968Z,63.26
2022-11-08T14:38:49.892Z,63.54
2022-11-08T14:41:27.171Z,63.85
2022-11-08T14:44:01.606Z,64.06
2022-11-08T14:46:38.104Z,64.47
2022-11-08T14:49:21.289Z,64.87
2022-11-08T14:52:13.741Z,65.29
2022-11-08T14:54:47.941Z,65.61
2022-11-08T14:57:37.872Z,66.15
2022-11-08T15:00:19.008Z,66.48
2022-11-08T15:02:54.506Z,66.67
2022-11-08T15:05:34.062Z,67.15
2022-11-08T15:08:09.472Z,67.46
2022-11-08T15:10:52.564Z,67.61
2022-11-08T15:13:25.735Z,67.80
2022-11-08T15:16:03.949Z,67.79
2022-11-08T15:18:39.402Z,67.68
2022-11-08T15:21:30.311Z,67.76
2022-11-08T15:24:14.514Z,67.81
2022-11-08T15:27:06.670Z,67.64
2022-11-08T15:29:56.416Z,67.84
2022-11-08T15:32:29.196Z,67.87
2022-11-08T15:35:03.705Z,67.84
2022-11-08T15:37:38.857Z,67.91
2022-11-08T15:40:20.915Z,68.04
2022-11-08T15:42:53.917Z,68.10
2022-11-08T15:45:29.281Z,68.22
2022-11-08T15:48:14.286Z,68.21
2022-11-08T15:50:46.375Z,68.27
2022-11-08T15:53:18.787Z,68.44
2022-11-08T15:55:54.995Z,68.59
2022-11-08T15:58:29.573Z,68.72
2022-11-08T16:01:03.387Z,68.99
2022-11-08T16:03:36.373Z,69.04
2022-11-08T16:06:10.843Z,68.98
2022-11-08T16:08:42.862Z,69.08
2022-11-08T16:11:19.820Z,69.18
2022-11-08T16:13:52.166Z,69.40
2022-11-08T16:16:24.405Z,69.60
2022-11-08T16:18:56.877Z,69.58
2022-11-08T16:21:29.038Z,69.85
2022-11-08T16:24:01.317Z,69.87
2022-11-08T16:26:33.909Z,70.10
2022-11-08T16:29:08.617Z,70.31
2022-11-08T16:31:40.686Z,70.50
2022-11-08T16:34:13.579Z,70.68
2022-11-08T16:36:48.153Z,70.88
2022-11-08T16:39:26.250Z,71.19
2022-11-08T16:41:59.240Z,71.19
2022-11-08T16:44:31.148Z,71.52
2022-11-08T16:47:03.292Z,71.53
2022-11-08T16:49:33.725Z,71.67
2022-11-08T16:52:05.889Z,71.93
2022-11-08T16:54:37.981Z,72.13
2022-11-08T16:57:32.974Z,72.42
2022-11-08T17:00:01.228Z,72.59
2022-11-08T17:02:36.722Z,72.93
2022-11-08T17:05:11.700Z,73.03
2022-11-08T17:07:43.797Z,73.08
2022-11-08T17:10:21.194Z,73.34
2022-11-08T17:12:54.073Z,73.63
2022-11-08T17:15:28.188Z,73.94
2022-11-08T17:18:03.319Z,74.14
2022-11-08T17:20:37.283Z,74.14
2022-11-08T17:23:10.548Z,74.49
2022-11-08T17:25:44.580Z,74.51
2022-11-08T17:28:17.884Z,74.72
2022-11-08T17:30:50.504Z,74.93
2022-11-08T17:33:23.226Z,75.19
2022-11-08T17:35:55.736Z,75.17
2022-11-08T17:38:28.106Z,75.22
2022-11-08T17:41:07.108Z,75.31
2022-11-08T17:43:39.654Z,75.64
2022-11-08T17:46:12.756Z,76.00
2022-11-08T17:48:45.002Z,76.18
2022-11-08T17:51:17.859Z,76.33
2022-11-08T17:53:50.336Z,76.43
2022-11-08T17:56:22.540Z,76.44
2022-11-08T17:58:55.080Z,76.61
2022-11-08T18:01:27.554Z,76.76
2022-11-08T18:03:59.968Z,76.88
2022-11-08T18:06:32.393Z,77.06
2022-11-08T18:09:04.571Z,77.27
2022-11-08T18:11:36.923Z,77.25
2022-11-08T18:14:09.433Z,77.18
2022-11-08T18:16:41.421Z,77.28
2022-11-08T18:19:12.529Z,77.46
2022-11-08T18:21:44.758Z,77.40
2022-11-08T18:24:17.350Z,77.49
2022-11-08T18:26:49.482Z,77.60
2022-11-08T18:29:22.171Z,77.62
2022-11-08T18:31:54.222Z,77.67
2022-11-08T18:34:24.741Z,77.73
2022-11-08T18:36:57.287Z,77.77
2022-11-08T18:39:30.826Z,77.83
2022-11-08T18:42:03.512Z,78.13
2022-11-08T18:44:35.715Z,78.06
2022-11-08T18:47:08.381Z,78.09
2022-11-08T18:49:40.633Z,78.02
2022-11-08T18:52:12.773Z,77.98
2022-11-08T18:54:48.616Z,78.31
2022-11-08T18:57:20.987Z,78.53
2022-11-08T18:59:56.102Z,78.54
2022-11-08T19:07:09.233Z,79.00
2022-11-08T19:09:49.449Z,79.15
2022-11-08T19:12:26.015Z,79.34
2022-11-08T19:15:02.090Z,79.72
2022-11-08T19:17:41.454Z,79.72
2022-11-08T19:23:27.668Z,79.98
2022-11-08T19:26:12.286Z,80.11
2022-11-08T19:28:50.530Z,80.20
2022-11-08T19:31:24.439Z,80.30
2022-11-08T19:37:22.417Z,80.51
2022-11-08T19:39:58.852Z,80.43
2022-11-08T19:42:35.045Z,80.55
2022-11-08T19:45:31.111Z,80.65
2022-11-08T19:48:15.556Z,80.78
2022-11-08T19:50:54.444Z,80.80
2022-11-08T19:57:51.976Z,80.93
2022-11-08T20:00:38.938Z,80.97
2022-11-08T20:03:18.692Z,81.03
2022-11-08T20:06:05.268Z,80.96
2022-11-08T20:08:58.080Z,80.97
2022-11-08T20:11:35.160Z,81.10
2022-11-08T20:14:21.086Z,81.07
2022-11-08T20:16:58.289Z,81.06
2022-11-08T20:19:33.592Z,81.01
2022-11-08T20:22:08.172Z,81.01
2022-11-08T20:24:40.411Z,80.87
2022-11-08T20:27:12.513Z,80.82
2022-11-08T20:29:44.530Z,80.93
2022-11-08T20:32:16.610Z,80.86
2022-11-08T20:34:50.817Z,80.87
2022-11-08T20:37:22.940Z,80.95
2022-11-08T20:39:53.505Z,80.84
2022-11-08T20:42:25.712Z,80.96
2022-11-08T20:44:57.951Z,80.89
2022-11-08T20:47:30.697Z,80.91
2022-11-08T20:50:02.849Z,81.05
2022-11-08T20:52:34.870Z,80.95
2022-11-08T20:55:05.605Z,80.98
2022-11-08T20:57:37.909Z,81.11
2022-11-08T21:00:13.768Z,81.29
2022-11-08T21:02:46.607Z,81.38
2022-11-08T21:05:18.910Z,81.50
2022-11-08T21:08:57.158Z,81.63
2022-11-08T21:10:43.922Z,81.74
2022-11-08T21:13:16.750Z,81.83
2022-11-08T21:15:49.568Z,82.08
2022-11-08T21:18:22.676Z,81.99
2022-11-08T21:21:05.279Z,82.19
2022-11-08T21:23:38.013Z,82.22
2022-11-08T21:26:11.170Z,82.32
2022-11-08T21:28:43.555Z,82.39
2022-11-08T21:31:15.665Z,82.60
2022-11-08T21:33:46.263Z,82.57
2022-11-08T21:36:18.770Z,82.81
2022-11-08T21:38:50.741Z,82.68
2022-11-08T21:41:23.056Z,82.86
2022-11-08T21:43:55.068Z,82.84
2022-11-08T21:46:26.601Z,82.87
2022-11-08T21:49:00.203Z,82.98
2022-11-08T21:51:32.723Z,82.88
2022-11-08T21:54:04.820Z,82.96
2022-11-08T21:56:38.932Z,82.95
2022-11-08T21:59:11.826Z,82.95
2022-11-08T22:01:44.166Z,82.89
2022-11-08T22:04:16.306Z,82.76
2022-11-08T22:06:48.461Z,82.77
2022-11-08T22:09:18.947Z,82.83
2022-11-08T22:11:51.085Z,82.80
2022-11-08T22:14:23.157Z,82.88
2022-11-08T22:16:55.274Z,82.91
2022-11-08T22:19:25.745Z,82.91
2022-11-08T22:21:57.679Z,82.97
2022-11-08T22:24:29.667Z,82.97
2022-11-08T22:27:00.123Z,83.05
2022-11-08T22:29:32.349Z,83.10
2022-11-08T22:32:03.523Z,83.12
2022-11-08T22:34:35.590Z,83.07
2022-11-08T22:37:07.663Z,83.22
2022-11-08T22:39:39.593Z,83.13
2022-11-08T22:42:10.239Z,83.31
2022-11-08T22:44:42.266Z,83.32
2022-11-08T22:47:12.741Z,83.32
2022-11-08T22:49:45.314Z,83.51
2022-11-08T22:52:17.477Z,83.52
2022-11-08T22:54:49.504Z,83.53
2022-11-08T22:57:20.113Z,83.51
2022-11-08T22:59:52.323Z,83.49
2022-11-08T23:02:26.701Z,83.62
2022-11-08T23:05:02.335Z,83.62
2022-11-08T23:07:34.351Z,83.70
2022-11-08T23:10:05.193Z,83.80
2022-11-08T23:12:54.620Z,83.94
2022-11-08T23:15:44.226Z,84.05
2022-11-08T23:18:16.354Z,83.95
2022-11-08T23:21:04.371Z,83.98
2022-11-08T23:23:56.495Z,83.97
2022-11-08T23:26:57.866Z,84.08
2022-11-08T23:29:47.327Z,84.28
2022-11-08T23:32:19.522Z,84.17
2022-11-08T23:34:51.696Z,84.09
2022-11-08T23:37:22.126Z,83.94
2022-11-08T23:40:11.520Z,84.05
2022-11-08T23:43:01.485Z,84.12
2022-11-08T23:45:33.699Z,83.93
2022-11-08T23:48:06.566Z,84.04
2022-11-08T23:50:38.880Z,83.96
2022-11-08T23:53:09.280Z,83.90
2022-11-08T23:55:41.343Z,83.90
2022-11-08T23:58:11.680Z,83.96
